createdAt,value
2023-02-11T00:02:17.015Z,102861.56
2023-02-11T00:04:43.175Z,102856.41
2023-02-11T00:07:09.318Z,102865.56
2023-02-11T00:09:35.479Z,102859.78
2023-02-11T00:12:01.630Z,102853.84
2023-02-11T00:14:27.760Z,102851.72
2023-02-11T00:16:53.954Z,102852.13
2023-02-11T00:19:20.176Z,102844.28
2023-02-11T00:21:46.348Z,102843.00
2023-02-11T00:24:12.493Z,102845.63
2023-02-11T00:26:38.672Z,102835.25
2023-02-11T00:29:04.788Z,102838.81
2023-02-11T00:31:31.093Z,102828.00
2023-02-11T00:33:57.254Z,102827.28
2023-02-11T00:36:23.462Z,102833.56
2023-02-11T00:38:49.641Z,102825.47
2023-02-11T00:41:15.777Z,102830.00
2023-02-11T00:43:41.913Z,102831.53
2023-02-11T00:46:08.195Z,102834.28
2023-02-11T00:48:34.369Z,102833.53
2023-02-11T00:51:00.525Z,102829.47
2023-02-11T00:53:26.706Z,102822.84
2023-02-11T00:55:52.848Z,102832.34
2023-02-11T00:58:19.036Z,102824.69
2023-02-11T01:00:45.151Z,102824.06
2023-02-11T01:03:11.319Z,102819.25
2023-02-11T01:05:37.576Z,102818.28
2023-02-11T01:08:03.721Z,102816.63
2023-02-11T01:10:29.909Z,102817.19
2023-02-11T01:12:56.059Z,102817.28
2023-02-11T01:15:22.234Z,102812.91
2023-02-11T01:17:48.378Z,102814.44
2023-02-11T01:20:14.557Z,102819.41
2023-02-11T01:22:40.937Z,102824.44
2023-02-11T01:25:07.145Z,102814.34
2023-02-11T01:27:33.299Z,102815.22
2023-02-11T01:29:59.460Z,102812.56
2023-02-11T01:32:25.604Z,102811.63
2023-02-11T01:34:51.780Z,102811.72
2023-02-11T01:37:17.929Z,102803.97
2023-02-11T01:39:44.049Z,102815.13
2023-02-11T01:42:10.239Z,102814.22
2023-02-11T01:44:36.370Z,102803.94
2023-02-11T01:47:02.556Z,102798.94
2023-02-11T01:49:28.899Z,102797.47
2023-02-11T01:51:55.062Z,102799.34
2023-02-11T01:54:21.178Z,102801.25
2023-02-11T01:56:47.376Z,102804.06
2023-02-11T01:59:13.557Z,102796.38
2023-02-11T02:01:39.788Z,102801.41
2023-02-11T02:04:05.958Z,102794.50
2023-02-11T02:06:32.171Z,102788.59
2023-02-11T02:08:58.389Z,102776.75
2023-02-11T02:11:24.579Z,102770.13
2023-02-11T02:13:50.786Z,102768.50
2023-02-11T02:16:16.944Z,102766.69
2023-02-11T02:18:43.181Z,102769.19
2023-02-11T02:21:09.369Z,102758.94
2023-02-11T02:23:35.538Z,102753.81
2023-02-11T02:26:01.710Z,102751.16
2023-02-11T02:28:27.897Z,102747.66
2023-02-11T02:30:54.139Z,102751.81
2023-02-11T02:33:23.537Z,102756.94
2023-02-11T02:35:50.047Z,102741.16
2023-02-11T02:38:16.347Z,102740.22
2023-02-11T02:40:42.502Z,102728.09
2023-02-11T02:43:08.630Z,102735.81
2023-02-11T02:45:34.833Z,102728.94
2023-02-11T02:48:01.104Z,102722.78
2023-02-11T02:50:27.278Z,102709.09
2023-02-11T02:52:53.430Z,102719.53
2023-02-11T02:55:19.620Z,102706.66
2023-02-11T02:57:45.803Z,102711.09
2023-02-11T03:00:12.024Z,102710.63
2023-02-11T03:02:38.188Z,102717.06
2023-02-11T03:05:04.382Z,102717.84
2023-02-11T03:07:30.582Z,102712.59
2023-02-11T03:09:56.765Z,102712.44
2023-02-11T03:12:22.972Z,102727.22
2023-02-11T03:14:49.122Z,102728.72
2023-02-11T03:17:15.286Z,102730.31
2023-02-11T03:19:41.411Z,102728.47
2023-02-11T03:22:07.572Z,102720.78
2023-02-11T03:24:33.748Z,102731.03
2023-02-11T03:27:00.014Z,102731.91
2023-02-11T03:29:26.398Z,102731.09
2023-02-11T03:31:52.575Z,102726.91
2023-02-11T03:34:18.793Z,102728.47
2023-02-11T03:36:44.932Z,102741.16
2023-02-11T03:39:11.128Z,102745.53
2023-02-11T03:41:37.350Z,102748.06
2023-02-11T03:44:03.542Z,102750.03
2023-02-11T03:46:29.667Z,102749.19
2023-02-11T03:48:55.816Z,102740.94
2023-02-11T03:51:21.963Z,102724.66
2023-02-11T03:53:48.109Z,102711.88
2023-02-11T03:56:14.229Z,102710.19
2023-02-11T03:58:40.440Z,102711.13
2023-02-11T04:01:06.670Z,102706.81
2023-02-11T04:03:32.904Z,102707.63
2023-02-11T04:05:59.202Z,102713.09
2023-02-11T04:08:25.386Z,102718.22
2023-02-11T04:10:51.559Z,102716.44
2023-02-11T04:13:17.734Z,102712.16
2023-02-11T04:15:43.943Z,102707.03
2023-02-11T04:18:10.112Z,102700.44
2023-02-11T04:20:36.312Z,102687.09
2023-02-11T04:23:02.492Z,102689.72
2023-02-11T04:25:28.684Z,102694.25
2023-02-11T04:27:54.986Z,102686.09
2023-02-11T04:30:21.202Z,102682.69
2023-02-11T04:32:47.330Z,102682.84
2023-02-11T04:35:14.517Z,102682.94
2023-02-11T04:37:43.763Z,102675.34
2023-02-11T04:40:09.913Z,102677.91
2023-02-11T04:42:36.043Z,102677.91
2023-02-11T04:45:02.241Z,102665.00
2023-02-11T04:47:28.476Z,102658.09
2023-02-11T04:49:54.657Z,102654.66
2023-02-11T04:52:20.887Z,102645.19
2023-02-11T04:54:47.042Z,102647.72
2023-02-11T04:57:14.388Z,102657.84
2023-02-11T04:59:40.512Z,102648.25
2023-02-11T05:02:06.654Z,102641.34
2023-02-11T05:04:34.062Z,102654.22
2023-02-11T05:07:00.250Z,102662.47
2023-02-11T05:09:26.400Z,102661.94
2023-02-11T05:11:52.580Z,102666.06
2023-02-11T05:14:18.757Z,102671.09
2023-02-11T05:16:44.948Z,102669.06
2023-02-11T05:19:11.349Z,102681.81
2023-02-11T05:21:50.350Z,102683.06
2023-02-11T05:24:22.988Z,102698.09
2023-02-11T05:26:49.186Z,102707.31
2023-02-11T05:29:15.305Z,102705.28
2023-02-11T05:31:41.446Z,102697.41
2023-02-11T05:34:07.614Z,102701.34
2023-02-11T05:36:33.795Z,102699.66
2023-02-11T05:38:59.987Z,102711.66
2023-02-11T05:41:26.116Z,102709.00
2023-02-11T05:43:52.318Z,102702.16
2023-02-11T05:46:18.450Z,102697.59
2023-02-11T05:48:44.636Z,102679.66
2023-02-11T05:51:10.842Z,102665.25
2023-02-11T05:53:37.048Z,102663.47
2023-02-11T05:56:03.226Z,102680.53
2023-02-11T05:58:29.389Z,102684.66
2023-02-11T06:00:55.513Z,102685.81
2023-02-11T06:03:21.675Z,102690.88
2023-02-11T06:05:48.047Z,102700.69
2023-02-11T06:08:14.283Z,102690.59
2023-02-11T06:10:40.478Z,102688.91
2023-02-11T06:13:06.610Z,102679.53
2023-02-11T06:15:32.795Z,102683.03
2023-02-11T06:17:58.987Z,102677.34
2023-02-11T06:20:25.184Z,102670.81
2023-02-11T06:22:51.312Z,102681.91
2023-02-11T06:25:17.459Z,102667.31
2023-02-11T06:27:43.630Z,102670.63
2023-02-11T06:30:09.875Z,102665.41
2023-02-11T06:32:43.860Z,102664.63
2023-02-11T06:35:12.248Z,102661.13
2023-02-11T06:37:38.693Z,102669.78
2023-02-11T06:40:04.861Z,102673.13
2023-02-11T06:42:30.994Z,102676.56
2023-02-11T06:44:57.123Z,102680.78
2023-02-11T06:47:23.271Z,102680.66
2023-02-11T06:49:49.430Z,102687.56
2023-02-11T06:52:15.626Z,102695.34
2023-02-11T06:54:41.810Z,102698.84
2023-02-11T06:57:07.930Z,102708.00
2023-02-11T06:59:34.161Z,102703.69
2023-02-11T07:02:00.521Z,102705.97
2023-02-11T07:04:26.711Z,102702.53
2023-02-11T07:06:52.906Z,102699.03
2023-02-11T07:09:19.077Z,102699.16
2023-02-11T07:11:45.260Z,102701.75
2023-02-11T07:14:11.431Z,102698.47
2023-02-11T07:16:37.633Z,102690.03
2023-02-11T07:21:54.265Z,102689.50
2023-02-11T07:24:20.418Z,102686.47
2023-02-11T07:26:46.624Z,102690.13
2023-02-11T07:29:12.843Z,102691.72
2023-02-11T07:31:39.095Z,102693.28
2023-02-11T07:34:05.394Z,102688.22
2023-02-11T07:36:31.518Z,102693.75
2023-02-11T07:38:57.679Z,102703.41
2023-02-11T07:41:23.815Z,102706.09
2023-02-11T07:43:49.971Z,102704.50
2023-02-11T07:46:19.229Z,102714.09
2023-02-11T07:48:45.382Z,102699.75
2023-02-11T07:51:11.570Z,102697.41
2023-02-11T07:53:37.726Z,102701.13
2023-02-11T07:56:03.914Z,102693.88
2023-02-11T07:58:30.139Z,102703.09
2023-02-11T08:00:56.369Z,102696.19
2023-02-11T08:03:22.674Z,102693.09
2023-02-11T08:05:49.256Z,102700.81
2023-02-11T08:08:15.676Z,102697.66
2023-02-11T08:10:41.840Z,102696.00
2023-02-11T08:13:08.075Z,102699.00
2023-02-11T08:15:34.279Z,102688.13
2023-02-11T08:18:00.435Z,102687.63
2023-02-11T08:20:26.589Z,102694.88
2023-02-11T08:22:52.769Z,102698.53
2023-02-11T08:25:18.924Z,102699.69
2023-02-11T08:27:45.048Z,102689.84
2023-02-11T08:30:11.242Z,102684.34
2023-02-11T08:32:37.679Z,102678.00
2023-02-11T08:35:03.869Z,102680.56
2023-02-11T08:37:32.763Z,102679.09
2023-02-11T08:39:59.308Z,102675.59
2023-02-11T08:42:25.518Z,102680.56
2023-02-11T08:44:51.705Z,102679.47
2023-02-11T08:47:17.887Z,102679.00
2023-02-11T08:49:44.099Z,102672.44
2023-02-11T08:52:10.326Z,102680.28
2023-02-11T08:54:36.531Z,102684.59
2023-02-11T08:57:02.747Z,102676.69
2023-02-11T08:59:28.954Z,102673.66
2023-02-11T09:02:07.150Z,102663.28
2023-02-11T09:04:33.383Z,102661.16
2023-02-11T09:06:59.573Z,102659.66
2023-02-11T09:09:25.768Z,102664.88
2023-02-11T09:11:51.937Z,102672.53
2023-02-11T09:14:18.069Z,102681.59
2023-02-11T09:16:44.310Z,102681.34
2023-02-11T09:19:10.512Z,102678.06
2023-02-11T09:21:36.704Z,102675.59
2023-02-11T09:24:02.936Z,102679.41
2023-02-11T09:26:29.074Z,102680.38
2023-02-11T09:28:55.218Z,102685.66
2023-02-11T09:31:21.452Z,102686.53
2023-02-11T09:33:47.662Z,102693.38
2023-02-11T09:36:13.826Z,102677.53
2023-02-11T09:38:40.014Z,102673.75
2023-02-11T09:41:06.186Z,102675.34
2023-02-11T09:43:32.347Z,102672.88
2023-02-11T09:45:59.950Z,102681.06
2023-02-11T09:48:26.157Z,102681.97
2023-02-11T09:50:52.645Z,102672.63
2023-02-11T09:53:19.036Z,102677.03
2023-02-11T09:55:45.215Z,102677.03
2023-02-11T09:58:11.363Z,102676.13
2023-02-11T10:00:37.475Z,102677.75
2023-02-11T10:03:03.623Z,102666.19
2023-02-11T10:05:29.749Z,102669.66
2023-02-11T10:07:55.912Z,102667.09
2023-02-11T10:10:22.081Z,102660.25
2023-02-11T10:12:48.289Z,102667.44
2023-02-11T10:15:14.524Z,102662.84
2023-02-11T10:17:40.725Z,102663.66
2023-02-11T10:20:06.916Z,102663.13
2023-02-11T10:22:33.101Z,102669.19
2023-02-11T10:24:59.230Z,102675.25
2023-02-11T10:27:25.460Z,102664.81
2023-02-11T10:29:51.604Z,102654.38
2023-02-11T10:32:17.752Z,102659.56
2023-02-11T10:34:43.935Z,102659.44
2023-02-11T10:37:10.345Z,102661.03
2023-02-11T10:39:36.495Z,102653.16
2023-02-11T10:42:02.657Z,102652.25
2023-02-11T10:44:28.808Z,102647.09
2023-02-11T10:46:54.976Z,102645.03
2023-02-11T10:49:21.105Z,102636.63
2023-02-11T10:51:47.306Z,102636.38
2023-02-11T10:54:13.933Z,102640.56
2023-02-11T10:56:40.221Z,102639.22
2023-02-11T10:59:06.432Z,102638.03
2023-02-11T11:01:32.686Z,102641.81
2023-02-11T11:03:58.866Z,102635.50
2023-02-11T11:06:25.339Z,102638.91
2023-02-11T11:08:51.569Z,102647.97
2023-02-11T11:11:17.825Z,102646.97
2023-02-11T11:13:44.344Z,102640.75
2023-02-11T11:16:10.514Z,102646.16
2023-02-11T11:18:36.755Z,102645.66
2023-02-11T11:21:02.966Z,102632.53
2023-02-11T11:23:29.124Z,102639.19
2023-02-11T11:25:55.294Z,102634.41
2023-02-11T11:28:21.625Z,102637.19
2023-02-11T11:30:47.807Z,102632.00
2023-02-11T11:33:14.023Z,102639.03
2023-02-11T11:35:40.194Z,102637.75
2023-02-11T11:38:06.403Z,102634.28
2023-02-11T11:40:32.560Z,102642.72
2023-02-11T11:42:58.674Z,102641.66
2023-02-11T11:45:24.853Z,102634.41
2023-02-11T11:47:50.971Z,102632.28
2023-02-11T11:50:18.513Z,102634.75
2023-02-11T11:52:46.307Z,102646.38
2023-02-11T11:55:12.493Z,102644.16
2023-02-11T11:57:38.650Z,102644.97
2023-02-11T12:00:04.779Z,102646.91
2023-02-11T12:02:31.028Z,102635.13
2023-02-11T12:04:57.206Z,102637.16
2023-02-11T12:07:25.814Z,102638.03
2023-02-11T12:09:52.188Z,102636.50
2023-02-11T12:12:18.326Z,102633.84
2023-02-11T12:14:44.526Z,102625.81
2023-02-11T12:17:10.693Z,102623.91
2023-02-11T12:19:36.842Z,102627.81
2023-02-11T12:22:03.035Z,102624.50
2023-02-11T12:24:29.268Z,102627.78
2023-02-11T12:26:55.447Z,102625.81
2023-02-11T12:29:21.629Z,102618.38
2023-02-11T12:31:49.193Z,102622.09
2023-02-11T12:34:15.447Z,102618.63
2023-02-11T12:36:41.593Z,102614.06
2023-02-11T12:39:07.802Z,102610.81
2023-02-11T12:41:33.927Z,102603.09
2023-02-11T12:44:00.136Z,102622.88
2023-02-11T12:46:26.315Z,102622.75
2023-02-11T12:48:52.510Z,102623.69
2023-02-11T12:51:18.700Z,102627.19
2023-02-11T12:53:44.848Z,102627.16
2023-02-11T12:56:11.047Z,102625.94
2023-02-11T12:58:44.830Z,102610.16
2023-02-11T13:01:11.855Z,102611.81
2023-02-11T13:03:38.074Z,102607.28
2023-02-11T13:06:04.260Z,102604.22
2023-02-11T13:08:30.442Z,102610.69
2023-02-11T13:10:56.589Z,102606.25
2023-02-11T13:13:22.773Z,102608.28
2023-02-11T13:15:48.956Z,102604.50
2023-02-11T13:18:18.795Z,102599.94
2023-02-11T13:20:45.324Z,102607.47
2023-02-11T13:23:11.530Z,102606.63
2023-02-11T13:25:37.655Z,102601.41
2023-02-11T13:28:03.902Z,102598.22
2023-02-11T13:30:30.146Z,102595.94
2023-02-11T13:32:56.371Z,102591.44
2023-02-11T13:35:22.594Z,102598.56
2023-02-11T13:37:48.728Z,102600.47
2023-02-11T13:40:14.882Z,102598.84
2023-02-11T13:42:41.012Z,102596.97
2023-02-11T13:45:07.197Z,102597.84
2023-02-11T13:47:33.385Z,102601.94
2023-02-11T13:49:59.609Z,102601.59
2023-02-11T13:52:27.406Z,102587.44
2023-02-11T13:54:53.618Z,102589.69
2023-02-11T13:57:19.801Z,102589.09
2023-02-11T13:59:45.970Z,102589.91
2023-02-11T14:02:12.217Z,102597.91
2023-02-11T14:07:23.587Z,102609.50
2023-02-11T14:09:49.724Z,102606.97
2023-02-11T14:12:15.943Z,102604.50
2023-02-11T14:14:42.071Z,102603.66
2023-02-11T14:17:08.287Z,102602.72
2023-02-11T14:19:34.645Z,102596.78
2023-02-11T14:22:00.889Z,102591.72
2023-02-11T14:24:34.341Z,102596.97
2023-02-11T14:27:00.632Z,102597.00
2023-02-11T14:32:16.228Z,102591.75
2023-02-11T14:34:42.491Z,102597.81
2023-02-11T14:37:08.666Z,102598.63
2023-02-11T14:39:34.894Z,102596.88
2023-02-11T14:42:01.121Z,102609.84
2023-02-11T14:44:27.324Z,102602.13
2023-02-11T14:46:56.617Z,102609.06
2023-02-11T14:49:22.979Z,102614.28
2023-02-11T14:51:49.183Z,102606.44
2023-02-11T14:54:15.411Z,102616.03
2023-02-11T14:56:41.633Z,102615.22
2023-02-11T14:59:07.863Z,102616.94
2023-02-11T15:01:34.191Z,102628.25
2023-02-11T15:04:02.722Z,102628.22
2023-02-11T15:09:21.262Z,102626.56
2023-02-11T15:11:47.427Z,102623.91
2023-02-11T15:14:13.628Z,102626.56
2023-02-11T15:16:41.599Z,102623.97
2023-02-11T15:19:14.649Z,102624.03
2023-02-11T15:21:40.849Z,102626.69
2023-02-11T15:24:10.026Z,102630.13
2023-02-11T15:26:36.268Z,102634.56
2023-02-11T15:29:02.434Z,102642.34
2023-02-11T15:31:28.827Z,102631.94
2023-02-11T15:33:55.493Z,102634.53
2023-02-11T15:36:21.634Z,102641.47
2023-02-11T15:38:47.800Z,102638.88
2023-02-11T15:41:14.030Z,102638.03
2023-02-11T15:43:40.208Z,102635.44
2023-02-11T15:46:06.400Z,102631.97
2023-02-11T15:48:32.580Z,102634.56
2023-02-11T15:50:58.750Z,102626.75
2023-02-11T15:53:25.076Z,102629.38
2023-02-11T15:55:51.188Z,102631.97
2023-02-11T15:58:17.342Z,102645.81
2023-02-11T16:00:43.553Z,102642.34
2023-02-11T16:03:09.687Z,102635.44
2023-02-11T16:05:35.856Z,102649.31
2023-02-11T16:08:01.982Z,102651.03
2023-02-11T16:13:20.606Z,102643.25
2023-02-11T16:15:46.796Z,102646.72
2023-02-11T16:18:13.001Z,102651.91
2023-02-11T16:20:39.137Z,102652.78
2023-02-11T16:28:45.498Z,102663.16
2023-02-11T16:36:45.669Z,102657.94
2023-02-11T16:39:11.869Z,102665.75
2023-02-11T16:41:38.017Z,102667.47
2023-02-11T16:44:04.208Z,102670.94
2023-02-11T16:46:30.424Z,102673.53
2023-02-11T16:48:56.550Z,102676.97
2023-02-11T16:51:22.719Z,102666.59
2023-02-11T16:53:48.939Z,102668.34
2023-02-11T16:56:15.140Z,102674.38
2023-02-11T16:58:41.279Z,102680.47
2023-02-11T17:01:07.432Z,102681.34
2023-02-11T17:03:33.632Z,102680.47
2023-02-11T17:06:06.092Z,102689.97
2023-02-11T17:11:22.332Z,102686.50
2023-02-11T17:13:48.656Z,102686.50
2023-02-11T17:16:14.812Z,102689.13
2023-02-11T17:18:41.024Z,102690.84
2023-02-11T17:21:09.263Z,102683.91
2023-02-11T17:23:35.425Z,102689.09
2023-02-11T17:26:01.585Z,102685.59
2023-02-11T17:28:27.804Z,102677.81
2023-02-11T17:30:57.269Z,102680.38
2023-02-11T17:33:23.590Z,102677.78
2023-02-11T17:35:50.167Z,102679.50
2023-02-11T17:38:16.750Z,102685.56
2023-02-11T17:40:42.903Z,102688.16
2023-02-11T17:43:09.064Z,102690.69
2023-02-11T17:45:35.286Z,102684.63
2023-02-11T17:48:01.431Z,102692.41
2023-02-11T17:50:29.286Z,102694.09
2023-02-11T17:52:55.737Z,102698.41
2023-02-11T17:55:21.975Z,102700.94
2023-02-11T17:57:48.140Z,102697.50
2023-02-11T18:00:14.354Z,102697.47
2023-02-11T18:02:42.629Z,102706.09
2023-02-11T18:05:08.837Z,102708.69
2023-02-11T18:07:35.005Z,102706.94
2023-02-11T18:10:01.189Z,102712.97
2023-02-11T18:12:27.420Z,102719.00
2023-02-11T18:14:58.192Z,102714.69
2023-02-11T18:17:24.640Z,102713.88
2023-02-11T18:19:50.975Z,102725.13
2023-02-11T18:22:17.180Z,102726.81
2023-02-11T18:24:43.378Z,102727.66
2023-02-11T18:27:09.547Z,102722.44
2023-02-11T18:29:35.697Z,102721.56
2023-02-11T18:32:01.915Z,102727.63
2023-02-11T18:34:28.113Z,102728.47
2023-02-11T18:36:55.779Z,102720.66
2023-02-11T18:39:21.976Z,102721.50
2023-02-11T18:41:48.185Z,102727.53
2023-02-11T18:44:14.435Z,102721.47
2023-02-11T18:46:43.381Z,102726.66
2023-02-11T18:49:09.605Z,102728.34
2023-02-11T18:51:35.772Z,102724.03
2023-02-11T18:54:02.002Z,102723.13
2023-02-11T18:56:28.184Z,102734.31
2023-02-11T18:58:54.324Z,102733.44
2023-02-11T19:01:20.553Z,102737.75
2023-02-11T19:03:46.788Z,102736.88
2023-02-11T19:06:12.956Z,102735.16
2023-02-11T19:08:39.107Z,102730.81
2023-02-11T19:11:05.297Z,102733.41
2023-02-11T19:13:31.443Z,102725.63
2023-02-11T19:15:57.599Z,102719.56
2023-02-11T19:18:23.754Z,102722.16
2023-02-11T19:20:49.936Z,102724.81
2023-02-11T19:23:16.167Z,102710.97
2023-02-11T19:25:42.371Z,102714.38
2023-02-11T19:28:08.732Z,102708.28
2023-02-11T19:30:38.731Z,102713.47
2023-02-11T19:33:10.222Z,102710.84
2023-02-11T19:35:36.865Z,102722.16
2023-02-11T19:38:03.193Z,102723.91
2023-02-11T19:40:30.833Z,102723.84
2023-02-11T19:42:57.133Z,102726.41
2023-02-11T19:45:23.477Z,102728.19
2023-02-11T19:47:49.874Z,102735.09
2023-02-11T19:50:16.375Z,102737.69
2023-02-11T19:52:42.729Z,102747.22
2023-02-11T19:55:08.926Z,102745.47
2023-02-11T19:57:38.104Z,102750.72
2023-02-11T20:00:04.548Z,102742.94
2023-02-11T20:02:30.951Z,102747.25
2023-02-11T20:04:57.172Z,102742.94
2023-02-11T20:07:23.419Z,102736.88
2023-02-11T20:09:49.703Z,102735.09
2023-02-11T20:12:19.351Z,102740.25
2023-02-11T20:14:50.421Z,102736.78
2023-02-11T20:17:16.685Z,102741.06
2023-02-11T20:19:46.642Z,102737.63
2023-02-11T20:22:12.822Z,102742.81
2023-02-11T20:24:39.020Z,102742.81
2023-02-11T20:27:05.210Z,102743.66
2023-02-11T20:29:31.411Z,102754.00
2023-02-11T20:31:57.706Z,102748.78
2023-02-11T20:34:24.001Z,102746.19
2023-02-11T20:36:50.153Z,102745.31
2023-02-11T20:39:16.339Z,102748.75
2023-02-11T20:41:42.524Z,102752.16
2023-02-11T20:44:08.721Z,102748.66
2023-02-11T20:46:34.931Z,102752.91
2023-02-11T20:49:01.110Z,102754.59
2023-02-11T20:51:27.311Z,102748.50
2023-02-11T20:53:53.438Z,102754.56
2023-02-11T20:56:19.618Z,102749.34
2023-02-11T20:58:45.779Z,102751.94
2023-02-11T21:01:11.928Z,102751.94
2023-02-11T21:03:38.115Z,102745.88
2023-02-11T21:06:04.392Z,102741.56
2023-02-11T21:08:30.535Z,102745.00
2023-02-11T21:10:56.680Z,102752.75
2023-02-11T21:13:22.873Z,102752.75
2023-02-11T21:15:49.039Z,102756.22
2023-02-11T21:18:15.208Z,102760.50
2023-02-11T21:20:41.350Z,102751.06
2023-02-11T21:23:07.529Z,102746.75
2023-02-11T21:25:33.732Z,102749.31
2023-02-11T21:27:59.968Z,102748.44
2023-02-11T21:30:26.110Z,102737.16
2023-02-11T21:32:52.418Z,102735.47
2023-02-11T21:35:18.583Z,102737.16
2023-02-11T21:37:44.756Z,102746.66
2023-02-11T21:40:10.963Z,102750.09
2023-02-11T21:42:37.126Z,102744.91
2023-02-11T21:45:03.529Z,102757.84
2023-02-11T21:47:29.710Z,102760.41
2023-02-11T21:49:55.916Z,102761.22
2023-02-11T21:52:22.042Z,102765.59
2023-02-11T21:54:48.209Z,102769.03
2023-02-11T21:57:14.404Z,102768.19
2023-02-11T21:59:40.542Z,102769.03
2023-02-11T22:02:06.687Z,102781.06
2023-02-11T22:04:32.927Z,102778.47
2023-02-11T22:06:59.096Z,102779.38
2023-02-11T22:09:25.305Z,102781.13
2023-02-11T22:11:51.461Z,102788.03
2023-02-11T22:14:17.637Z,102788.03
2023-02-11T22:16:43.854Z,102790.63
2023-02-11T22:19:10.730Z,102773.28
2023-02-11T22:21:36.962Z,102781.16
2023-02-11T22:24:03.144Z,102789.81
2023-02-11T22:26:29.290Z,102788.94
2023-02-11T22:28:55.438Z,102788.94
2023-02-11T22:31:21.618Z,102788.03
2023-02-11T22:33:47.888Z,102787.16
2023-02-11T22:36:14.067Z,102786.31
2023-02-11T22:38:40.232Z,102777.66
2023-02-11T22:41:06.363Z,102776.78
2023-02-11T22:43:32.545Z,102775.91
2023-02-11T22:45:58.950Z,102774.16
2023-02-11T22:48:25.240Z,102775.91
2023-02-11T22:50:51.410Z,102783.63
2023-02-11T22:53:17.563Z,102774.97
2023-02-11T22:55:43.780Z,102770.66
2023-02-11T22:58:09.947Z,102774.13
2023-02-11T23:00:36.168Z,102781.88
2023-02-11T23:03:02.359Z,102783.56
2023-02-11T23:05:28.575Z,102766.31
2023-02-11T23:07:54.740Z,102763.72
2023-02-11T23:10:20.931Z,102767.19
2023-02-11T23:12:47.142Z,102783.59
2023-02-11T23:15:13.357Z,102789.66
2023-02-11T23:17:39.578Z,102788.81
2023-02-11T23:20:05.784Z,102793.16
2023-02-11T23:22:31.924Z,102787.13
2023-02-11T23:24:58.056Z,102800.97
2023-02-11T23:27:26.255Z,102787.13
2023-02-11T23:29:52.400Z,102798.34
2023-02-11T23:32:18.555Z,102798.38
2023-02-11T23:34:44.771Z,102788.03
2023-02-11T23:37:10.916Z,102797.47
2023-02-11T23:39:37.309Z,102795.78
2023-02-11T23:42:06.377Z,102799.19
2023-02-11T23:44:33.735Z,102809.50
2023-02-11T23:47:02.801Z,102809.50
2023-02-11T23:49:29.026Z,102810.34
2023-02-11T23:51:55.234Z,102814.63
2023-02-11T23:54:21.415Z,102812.91
2023-02-11T23:56:47.569Z,102804.22
2023-02-11T23:59:13.764Z,102808.50
